Time;durP1;ratioP1;P1;durP2;ratioP2;P2;SDS_P1;SDS_P2;PMS_P1;PMS_P2;Temp;Humidity;BMP_temperature;BMP_pressure;BME280_temperature;BME280_humidity;BME280_pressure;Samples;Min_cycle;Max_cycle;Signal;HPM_P1;HPM_P2
2021/05/23 00:01:32;;;;;;;2.55;1.52;;;9.50;99.90;;;10.95;88.88;99896.06;4936539;29;20122;-84
2021/05/23 00:03:58;;;;;;;4.47;1.60;;;9.50;99.90;;;10.85;89.55;99895.94;4936485;29;20114;-83
2021/05/23 00:06:24;;;;;;;4.68;1.60;;;9.50;99.90;;;10.94;89.55;99890.88;4936137;29;20403;-84
2021/05/23 00:08:50;;;;;;;5.28;1.60;;;9.60;99.90;;;10.98;88.57;99894.53;4935705;29;20038;-83
2021/05/23 00:11:16;;;;;;;5.38;1.42;;;9.60;99.90;;;11.00;88.58;99898.53;4938202;23;20195;-84
2021/05/23 00:13:49;;;;;;;4.57;1.55;;;9.50;99.90;;;10.96;88.63;99903.28;4917974;29;20121;-84
2021/05/23 00:16:22;;;;;;;4.78;1.50;;;9.60;99.90;;;11.07;88.19;99903.44;4918383;29;20020;-84
2021/05/23 00:18:54;;;;;;;4.47;1.77;;;9.50;99.90;;;11.01;88.65;99902.16;4918424;29;20036;-84
2021/05/23 00:21:26;;;;;;;3.58;1.52;;;9.50;99.90;;;10.93;88.52;99906.81;4921836;29;20083;-83
2021/05/23 00:23:53;;;;;;;2.13;1.55;;;9.50;99.90;;;10.91;89.02;99898.03;4919410;29;20028;-84
2021/05/23 00:26:19;;;;;;;3.20;1.52;;;9.50;99.90;;;10.85;89.92;99902.31;4918012;29;20036;-83
2021/05/23 00:28:46;;;;;;;3.70;1.58;;;9.60;99.90;;;10.89;89.36;99908.75;4917733;29;20084;-84
2021/05/23 00:31:11;;;;;;;3.58;1.77;;;9.50;99.90;;;10.98;89.18;99912.06;4918008;29;20127;-84
2021/05/23 00:33:37;;;;;;;3.45;1.38;;;9.60;99.90;;;11.04;89.13;99904.19;4917421;29;20060;-83
2021/05/23 00:36:04;;;;;;;3.72;1.48;;;9.60;99.90;;;10.91;89.09;99908.41;4918199;29;20024;-84
2021/05/23 00:38:31;;;;;;;4.28;1.77;;;9.60;99.90;;;11.10;88.42;99906.28;4919161;29;20036;-83
2021/05/23 00:40:57;;;;;;;3.13;1.70;;;9.60;99.90;;;11.02;89.10;99910.13;4916756;29;20028;-84
2021/05/23 00:43:23;;;;;;;2.83;1.65;;;9.60;99.90;;;11.00;89.43;99901.34;4917189;29;20488;-83
2021/05/23 00:45:50;;;;;;;3.13;1.77;;;9.60;99.90;;;11.01;89.49;99905.72;4922451;29;20083;-83
2021/05/23 00:48:19;;;;;;;2.22;1.63;;;9.60;99.90;;;10.86;90.70;99905.91;4932781;29;20028;-83
2021/05/23 00:50:46;;;;;;;5.57;2.30;;;9.50;99.90;;;10.92;90.68;99904.41;4916811;29;20440;-84
2021/05/23 00:53:13;;;;;;;5.22;2.15;;;9.50;99.90;;;10.92;90.43;99910.78;4918814;29;20032;-84
2021/05/23 00:55:41;;;;;;;5.85;1.92;;;9.50;99.90;;;10.86;91.21;99903.94;4917313;29;20043;-84
2021/05/23 00:58:07;;;;;;;2.42;1.80;;;9.40;99.90;;;10.89;91.31;99908.75;4916829;29;20028;-84
2021/05/23 01:00:40;;;;;;;4.30;2.47;;;9.50;99.90;;;10.84;91.71;99906.31;4917441;29;20039;-82
2021/05/23 01:03:28;;;;;;;4.60;2.10;;;9.40;99.90;;;10.84;91.46;99911.91;4918332;29;20131;-81
2021/05/23 01:06:06;;;;;;;5.25;2.10;;;9.40;99.90;;;10.88;91.11;99907.16;4916371;29;20043;-83
2021/05/23 01:08:36;;;;;;;5.85;2.10;;;9.40;99.90;;;10.94;91.06;99913.22;4918756;29;20508;-85
2021/05/23 01:11:28;;;;;;;3.75;2.00;;;9.40;99.90;;;10.87;91.17;99910.31;4899990;29;20036;-85
2021/05/23 01:14:00;;;;;;;5.43;2.70;;;9.40;99.90;;;10.83;91.52;99904.69;4898937;29;20039;-84
2021/05/23 01:16:34;;;;;;;4.40;2.45;;;9.40;99.90;;;10.85;91.82;99919.06;4899121;29;20071;-83
2021/05/23 01:19:32;;;;;;;3.75;2.22;;;9.30;99.90;;;10.86;91.61;99914.28;4899377;29;20511;-84
2021/05/23 01:22:27;;;;;;;4.55;2.63;;;9.40;99.90;;;10.88;91.36;99911.94;4899989;29;20485;-84
2021/05/23 01:25:17;;;;;;;5.30;2.47;;;9.40;99.90;;;10.86;90.98;99906.72;4914510;29;20071;-86
2021/05/23 01:27:51;;;;;;;5.95;2.35;;;9.40;99.90;;;10.83;91.27;99915.84;4898547;29;20035;-84
2021/05/23 01:30:47;;;;;;;3.70;2.22;;;9.40;99.90;;;10.88;91.43;99926.72;4898444;29;20037;-85
2021/05/23 01:33:18;;;;;;;5.75;1.77;;;9.30;99.90;;;10.77;91.57;99922.16;4900205;29;20098;-84
2021/05/23 01:35:53;;;;;;;5.28;2.85;;;9.30;99.90;;;10.80;91.43;99918.59;4899905;29;20124;-84
2021/05/23 01:38:21;;;;;;;4.23;2.20;;;9.30;99.90;;;10.81;91.54;99923.81;4899623;29;20059;-86
2021/05/23 01:40:51;;;;;;;4.40;2.60;;;9.30;99.90;;;10.79;91.71;99925.38;4903422;29;20036;-85
2021/05/23 01:43:19;;;;;;;7.28;2.85;;;9.40;99.90;;;10.83;91.77;99927.03;4913240;29;20029;-85
2021/05/23 01:45:46;;;;;;;6.28;2.70;;;9.40;99.90;;;10.83;91.63;99929.00;4898849;29;20040;-84
2021/05/23 01:48:12;;;;;;;5.20;2.65;;;9.30;99.90;;;10.55;92.63;99927.44;4913967;29;20023;-87
2021/05/23 01:50:40;;;;;;;4.93;3.53;;;9.40;99.90;;;10.77;91.73;99924.94;4923094;29;20122;-86
2021/05/23 01:53:08;;;;;;;5.55;2.70;;;9.40;99.90;;;10.79;92.33;99928.97;4920107;29;20044;-87
2021/05/23 01:55:36;;;;;;;4.65;3.00;;;9.40;99.90;;;10.63;93.07;99919.16;4931682;29;20084;-87
2021/05/23 01:58:04;;;;;;;5.13;3.38;;;9.40;99.90;;;10.69;92.96;99934.41;4917697;29;20051;-86
2021/05/23 02:00:48;;;;;;;5.32;3.33;;;9.40;99.90;;;10.79;92.58;99940.13;4933375;29;20088;-87
2021/05/23 02:03:19;;;;;;;8.15;3.65;;;9.40;99.90;;;10.71;92.67;99926.44;4926283;29;20103;-84
2021/05/23 02:05:51;;;;;;;5.38;3.10;;;9.40;99.90;;;10.70;92.79;99936.81;4926939;29;20096;-84
2021/05/23 02:08:21;;;;;;;6.00;3.05;;;9.30;99.90;;;10.74;92.64;99928.50;4923720;29;20020;-83
2021/05/23 02:10:51;;;;;;;5.82;3.20;;;9.30;99.90;;;10.73;92.67;99930.47;4920550;29;20039;-83
2021/05/23 02:13:18;;;;;;;7.93;4.10;;;9.30;99.90;;;10.74;92.85;99926.50;4921209;29;20028;-84
2021/05/23 02:15:46;;;;;;;5.47;3.70;;;9.30;99.90;;;10.59;93.82;99928.25;4920049;29;20078;-86
2021/05/23 02:18:13;;;;;;;4.65;3.72;;;9.30;99.90;;;10.66;93.75;99927.56;4922755;29;20484;-86
2021/05/23 02:20:39;;;;;;;5.00;3.63;;;9.30;99.90;;;10.72;93.40;99931.69;4918157;29;20036;-86
2021/05/23 02:23:19;;;;;;;7.60;4.13;;;9.20;99.90;;;10.55;93.87;99930.22;4918295;29;20634;-87
2021/05/23 02:25:46;;;;;;;5.65;4.28;;;9.20;99.90;;;10.65;93.66;99925.97;4921665;29;20039;-84
2021/05/23 02:28:15;;;;;;;9.57;4.03;;;9.20;99.90;;;10.70;93.42;99936.00;4910324;29;20412;-85
2021/05/23 02:30:50;;;;;;;5.43;3.80;;;9.30;99.90;;;10.73;92.96;99935.25;4922710;29;20031;-87
2021/05/23 02:33:17;;;;;;;5.38;3.63;;;9.20;99.90;;;10.72;93.07;99934.47;4925140;29;20038;-85
2021/05/23 02:35:50;;;;;;;6.28;3.80;;;9.20;99.90;;;10.74;93.31;99934.06;4930441;29;20024;-86
2021/05/23 02:38:17;;;;;;;7.13;4.15;;;9.20;99.90;;;10.68;93.75;99932.78;4924874;29;20028;-83
2021/05/23 02:40:46;;;;;;;6.30;4.07;;;9.20;99.90;;;10.65;93.45;99933.53;4916922;29;20039;-87
2021/05/23 02:43:14;;;;;;;8.30;4.45;;;9.20;99.90;;;10.61;94.40;99933.50;4920724;29;20032;-84
2021/05/23 02:45:44;;;;;;;7.60;3.92;;;9.20;99.90;;;10.70;93.93;99936.81;4924944;29;20470;-85
2021/05/23 02:48:11;;;;;;;8.70;4.25;;;9.20;99.90;;;10.60;94.25;99943.03;4923952;29;20225;-87
2021/05/23 02:50:53;;;;;;;5.57;4.40;;;9.20;99.90;;;10.66;94.16;99944.31;4925976;29;20032;-86
2021/05/23 02:53:21;;;;;;;8.55;4.82;;;9.20;99.90;;;10.65;93.59;99937.16;4926143;29;20115;-86
2021/05/23 02:55:50;;;;;;;8.10;4.90;;;9.20;99.90;;;10.69;93.70;99937.97;4920600;29;20388;-85
2021/05/23 02:58:18;;;;;;;11.15;4.72;;;9.20;99.90;;;10.59;93.88;99945.00;4932139;29;20071;-85
2021/05/23 03:00:46;;;;;;;9.68;5.35;;;9.20;99.90;;;10.67;93.62;99948.75;4927921;29;20119;-85
2021/05/23 03:03:14;;;;;;;6.68;4.50;;;9.20;99.90;;;10.67;93.50;99947.94;4938271;29;20028;-85
2021/05/23 03:05:42;;;;;;;6.53;4.57;;;9.20;99.90;;;10.72;93.22;99948.44;4930192;29;20032;-87
2021/05/23 03:08:09;;;;;;;5.38;4.50;;;9.20;99.90;;;10.71;92.93;99960.78;4932994;29;20042;-85
2021/05/23 03:10:48;;;;;;;9.10;4.65;;;9.20;99.90;;;10.72;92.65;99956.00;4937339;29;20091;-85
2021/05/23 03:13:15;;;;;;;6.88;4.22;;;9.20;99.90;;;10.67;92.39;99959.91;4933177;28;20035;-86
2021/05/23 03:15:41;;;;;;;6.90;4.50;;;9.20;99.90;;;10.70;92.67;99964.75;4925376;29;20032;-86
2021/05/23 03:18:09;;;;;;;6.30;4.18;;;9.20;99.90;;;10.67;92.96;99965.50;4931793;29;20028;-86
2021/05/23 03:20:40;;;;;;;8.68;4.40;;;9.20;99.90;;;10.71;92.66;99960.78;4929009;29;20024;-84
2021/05/23 03:23:07;;;;;;;6.45;4.05;;;9.30;99.90;;;10.67;92.51;99975.84;4927883;29;20387;-86
2021/05/23 03:25:35;;;;;;;7.35;4.05;;;9.20;99.90;;;10.61;92.51;99968.97;4937354;28;20024;-85
2021/05/23 03:28:03;;;;;;;6.93;4.55;;;9.20;99.90;;;10.65;92.09;99972.63;4934626;29;20036;-85
2021/05/23 03:30:41;;;;;;;10.52;4.90;;;9.30;99.90;;;10.63;92.53;99981.38;4928343;29;20088;-85
2021/05/23 03:33:10;;;;;;;9.30;5.35;;;9.20;99.90;;;10.65;92.25;99975.44;4926455;29;20576;-85
2021/05/23 03:35:38;;;;;;;6.05;4.75;;;9.30;99.90;;;10.60;92.43;99984.94;4927594;29;20032;-84
2021/05/23 03:38:07;;;;;;;6.90;5.20;;;9.20;99.90;;;10.67;92.76;99985.03;4926398;29;20036;-83
2021/05/23 03:40:36;;;;;;;8.73;4.93;;;9.30;99.90;;;10.70;92.33;99987.09;4918959;29;20031;-85
2021/05/23 03:43:04;;;;;;;7.65;5.13;;;9.20;99.90;;;10.73;92.54;99991.09;4917946;29;20028;-84
2021/05/23 03:45:31;;;;;;;9.38;4.95;;;9.20;99.90;;;10.69;92.55;99995.84;4920091;29;20103;-85
2021/05/23 03:47:59;;;;;;;8.57;5.55;;;9.30;99.90;;;10.69;92.16;99990.28;4919634;29;20032;-83
2021/05/23 03:50:25;;;;;;;10.05;6.18;;;9.30;99.90;;;10.70;92.28;99998.25;4919025;29;20127;-84
2021/05/23 03:52:57;;;;;;;9.52;6.40;;;9.30;99.90;;;10.79;92.09;99998.00;4924609;29;20032;-82
2021/05/23 03:55:26;;;;;;;10.65;7.32;;;9.30;99.90;;;10.74;92.60;100006.69;4926573;29;20079;-83
2021/05/23 03:57:54;;;;;;;8.93;6.80;;;9.30;99.90;;;10.65;93.53;100006.16;4919418;29;20481;-82
2021/05/23 04:00:24;;;;;;;8.90;6.45;;;9.30;99.90;;;10.70;93.05;100006.63;4919549;29;20579;-84
2021/05/23 04:02:55;;;;;;;11.45;7.60;;;9.30;99.90;;;10.73;93.09;100014.25;4939215;29;20036;-85
2021/05/23 04:05:29;;;;;;;19.67;8.00;;;9.20;99.90;;;10.74;93.25;100018.69;4921202;29;20036;-83
2021/05/23 04:07:58;;;;;;;10.02;7.13;;;9.20;99.90;;;10.78;93.25;100019.56;4921101;29;20091;-84
2021/05/23 04:10:33;;;;;;;10.40;7.85;;;9.30;99.90;;;10.78;93.42;100027.13;4932467;29;20058;-86
2021/05/23 04:13:02;;;;;;;11.75;8.70;;;9.20;99.90;;;10.76;93.26;100029.47;4939762;29;20369;-84
2021/05/23 04:15:28;;;;;;;9.98;7.93;;;9.20;99.90;;;10.72;94.06;100029.44;4940548;29;20119;-86
2021/05/23 04:17:54;;;;;;;14.55;9.70;;;9.30;99.90;;;10.69;93.98;100030.16;4940500;29;20031;-82
2021/05/23 04:20:25;;;;;;;14.40;10.15;;;9.20;99.90;;;10.68;94.34;100034.13;4941553;29;20056;-85
2021/05/23 04:22:54;;;;;;;13.07;10.02;;;9.20;99.90;;;10.68;94.46;100031.34;4947579;28;20027;-84
2021/05/23 04:25:29;;;;;;;13.25;9.95;;;9.30;99.90;;;10.75;94.35;100042.66;4945614;28;20059;-83
2021/05/23 04:27:55;;;;;;;14.65;10.57;;;9.30;99.90;;;10.71;94.69;100049.34;4952466;29;20505;-84
2021/05/23 04:30:25;;;;;;;14.55;11.25;;;9.30;99.90;;;10.70;95.13;100053.31;4937598;29;20043;-84
2021/05/23 04:32:54;;;;;;;15.40;11.30;;;9.30;99.90;;;10.68;95.26;100048.09;4937484;28;20036;-85
2021/05/23 04:35:21;;;;;;;14.00;11.48;;;9.30;99.90;;;10.75;95.26;100056.63;4941699;29;20527;-87
2021/05/23 04:37:47;;;;;;;17.73;13.38;;;9.30;99.90;;;10.73;95.28;100056.16;4939521;29;20032;-83
2021/05/23 04:40:16;;;;;;;16.95;12.35;;;9.30;99.90;;;10.84;94.61;100064.72;4933494;28;20088;-86
2021/05/23 04:42:43;;;;;;;18.13;13.32;;;9.30;99.90;;;10.80;94.01;100061.88;4920257;29;20095;-85
2021/05/23 04:45:11;;;;;;;17.05;13.13;;;9.40;99.90;;;10.85;94.30;100064.34;4922635;29;20127;-84
2021/05/23 04:47:37;;;;;;;22.10;13.82;;;9.40;99.90;;;10.95;93.83;100065.69;4923059;29;20418;-84
2021/05/23 04:50:06;;;;;;;18.20;13.35;;;9.40;99.90;;;10.93;94.13;100082.03;4920267;29;20036;-84
2021/05/23 04:52:34;;;;;;;19.30;13.98;;;9.50;99.90;;;11.03;93.77;100075.81;4925650;29;20032;-83
2021/05/23 04:55:00;;;;;;;17.23;13.55;;;9.50;99.90;;;11.06;93.63;100073.06;4921958;29;20138;-85
2021/05/23 04:57:26;;;;;;;19.00;13.18;;;9.50;99.90;;;11.11;93.51;100081.13;4932903;29;20041;-85
2021/05/23 04:59:53;;;;;;;20.20;14.73;;;9.50;99.90;;;11.11;94.03;100083.94;4922622;29;20409;-85
2021/05/23 05:02:20;;;;;;;17.40;12.77;;;9.50;99.90;;;11.11;93.31;100081.13;4916362;29;20036;-85
2021/05/23 05:04:48;;;;;;;16.75;12.73;;;9.60;99.90;;;11.10;93.88;100087.91;4916692;29;20139;-84
2021/05/23 05:07:15;;;;;;;19.50;13.85;;;9.50;99.90;;;11.15;93.04;100091.56;4925121;29;20512;-85
2021/05/23 05:09:40;;;;;;;19.05;14.18;;;9.50;99.90;;;10.97;93.94;100094.09;4925389;29;20122;-85
2021/05/23 05:12:07;;;;;;;19.30;14.00;;;9.50;99.90;;;10.94;93.83;100094.81;4936873;29;20055;-86
2021/05/23 05:14:34;;;;;;;21.13;13.98;;;9.50;99.90;;;10.91;94.67;100101.97;4936653;29;20043;-86
2021/05/23 05:17:00;;;;;;;18.17;13.57;;;9.50;99.90;;;10.95;94.10;100097.22;4936788;29;20043;-86
2021/05/23 05:19:27;;;;;;;18.95;14.20;;;9.50;99.90;;;11.06;94.16;100105.81;4935760;28;20480;-85
2021/05/23 05:21:53;;;;;;;19.02;12.98;;;9.60;99.90;;;11.11;93.45;100108.25;4941812;29;20040;-84
2021/05/23 05:24:21;;;;;;;19.55;13.02;;;9.60;99.90;;;11.10;93.54;100106.69;4937497;28;20411;-83
2021/05/23 05:26:47;;;;;;;17.35;12.43;;;9.60;99.90;;;11.15;93.48;100113.91;4940093;28;20027;-85
2021/05/23 05:29:13;;;;;;;18.73;13.43;;;9.60;99.90;;;11.22;93.11;100108.44;4937556;29;20032;-85
2021/05/23 05:31:40;;;;;;;17.85;12.95;;;9.60;99.90;;;11.18;93.54;100111.19;4938272;29;20059;-86
2021/05/23 05:34:06;;;;;;;17.67;12.40;;;9.70;99.90;;;11.19;93.42;100112.00;4942349;29;20086;-85
2021/05/23 05:36:32;;;;;;;15.70;12.20;;;9.70;99.90;;;11.27;93.28;100113.72;4934686;29;20021;-88
2021/05/23 05:38:58;;;;;;;18.35;13.48;;;9.70;99.90;;;11.38;92.79;100112.69;4919906;29;20047;-87
2021/05/23 05:41:24;;;;;;;17.58;12.88;;;9.80;99.90;;;11.35;93.14;100121.03;4920460;29;20032;-87
2021/05/23 05:43:50;;;;;;;19.13;14.30;;;9.80;99.90;;;11.45;92.65;100118.41;4922344;29;20046;-86
2021/05/23 05:46:18;;;;;;;19.45;13.77;;;9.80;99.90;;;11.32;92.83;100121.78;4918036;29;20042;-85
2021/05/23 05:48:44;;;;;;;18.23;13.38;;;9.80;99.90;;;11.42;92.65;100129.53;4916668;29;20114;-84
2021/05/23 05:51:10;;;;;;;20.75;14.65;;;9.90;99.90;;;11.47;92.20;100132.81;4919742;29;20066;-84
2021/05/23 05:53:36;;;;;;;17.70;14.77;;;10.00;99.90;;;11.57;91.72;100132.16;4919610;29;20139;-82
2021/05/23 05:56:02;;;;;;;20.13;13.82;;;10.00;99.90;;;11.71;91.62;100128.81;4918782;29;20035;-84
2021/05/23 05:58:28;;;;;;;20.30;14.68;;;10.20;99.90;;;11.92;90.95;100131.88;4919365;29;20119;-83
2021/05/23 06:00:54;;;;;;;18.55;13.73;;;10.30;99.90;;;12.26;90.01;100134.72;4917116;29;20060;-84
2021/05/23 06:03:20;;;;;;;17.08;12.88;;;10.50;99.90;;;12.22;89.68;100128.25;4918720;29;20072;-86
2021/05/23 06:05:46;;;;;;;18.45;12.30;;;10.60;99.90;;;12.31;87.79;100134.38;4933648;29;20032;-85
2021/05/23 06:08:21;;;;;;;14.98;10.98;;;10.70;99.90;;;12.26;88.16;100134.72;4918763;29;20036;-86
2021/05/23 06:10:49;;;;;;;13.15;10.43;;;10.60;99.90;;;12.09;88.38;100139.72;4920721;29;20043;-86
2021/05/23 06:13:15;;;;;;;14.07;9.07;;;10.50;99.90;;;11.62;89.85;100143.00;4921412;29;20079;-87
2021/05/23 06:15:41;;;;;;;9.70;7.57;;;10.40;99.90;;;11.72;89.85;100147.19;4923696;29;20056;-89
2021/05/23 06:18:07;;;;;;;9.85;7.05;;;10.30;99.90;;;11.48;91.02;100156.00;4924569;29;20038;-86
2021/05/23 06:20:33;;;;;;;9.75;6.65;;;10.10;99.90;;;11.33;92.31;100152.19;4933698;29;20037;-86
2021/05/23 06:23:04;;;;;;;8.25;6.75;;;10.10;99.90;;;11.24;92.66;100160.00;4943949;29;20028;-83
2021/05/23 06:25:30;;;;;;;7.95;6.35;;;10.00;99.90;;;11.36;92.34;100159.81;4941495;29;20063;-86
2021/05/23 06:27:56;;;;;;;6.70;5.50;;;10.00;99.90;;;11.48;91.79;100162.41;4940762;29;20106;-84
2021/05/23 06:30:22;;;;;;;7.85;5.85;;;10.00;99.90;;;11.45;91.55;100165.13;4938878;29;20171;-82
2021/05/23 06:32:48;;;;;;;8.38;5.90;;;10.00;99.90;;;11.44;91.55;100160.72;4943100;29;20028;-84
2021/05/23 06:35:17;;;;;;;9.68;6.10;;;10.00;99.90;;;11.26;92.90;100168.84;4942169;29;20035;-84
2021/05/23 06:37:45;;;;;;;8.40;5.88;;;10.00;99.90;;;11.28;92.80;100174.84;4931889;29;20418;-87
2021/05/23 06:40:12;;;;;;;10.77;6.03;;;10.00;99.90;;;11.36;92.45;100184.97;4926821;29;20040;-85
2021/05/23 06:42:39;;;;;;;10.60;6.80;;;10.00;99.90;;;11.42;92.64;100185.47;4940443;29;20063;-86
2021/05/23 06:45:06;;;;;;;7.07;6.30;;;10.00;99.90;;;11.45;92.17;100196.72;4945713;29;20051;-86
2021/05/23 06:47:32;;;;;;;7.47;6.65;;;10.00;99.90;;;11.33;92.34;100202.50;4942867;29;20024;-86
2021/05/23 06:49:59;;;;;;;11.80;6.18;;;10.00;99.90;;;11.14;91.88;100198.97;4936598;29;20044;-87
2021/05/23 06:52:28;;;;;;;8.13;6.10;;;10.00;99.90;;;10.97;92.87;100203.88;4939107;29;20034;-85
2021/05/23 06:54:54;;;;;;;8.07;5.93;;;9.90;99.90;;;11.09;91.96;100209.28;4949225;29;20071;-88
2021/05/23 06:57:20;;;;;;;9.70;6.20;;;9.80;99.90;;;11.15;91.02;100214.53;4942260;29;20039;-87
2021/05/23 06:59:47;;;;;;;10.45;4.80;;;9.80;99.90;;;11.08;91.54;100213.22;4946338;29;20026;-88
2021/05/23 07:02:13;;;;;;;7.05;4.75;;;9.90;99.90;;;11.01;91.64;100215.91;4926119;29;20051;-85
2021/05/23 07:04:39;;;;;;;8.07;4.18;;;9.70;99.90;;;11.00;91.15;100219.88;4932453;29;20087;-89
2021/05/23 07:07:05;;;;;;;10.27;4.22;;;9.60;99.90;;;10.85;90.82;100229.16;4933403;29;20444;-88
2021/05/23 07:09:30;;;;;;;8.88;4.13;;;9.60;99.90;;;10.88;91.22;100231.25;4932632;29;20058;-87
2021/05/23 07:11:56;;;;;;;8.77;4.10;;;9.60;99.90;;;11.04;90.38;100231.13;4932227;29;20038;-90
2021/05/23 07:14:22;;;;;;;10.32;3.88;;;9.60;99.90;;;11.07;90.08;100235.97;4927449;29;20063;-86
2021/05/23 07:16:49;;;;;;;7.32;3.63;;;9.70;99.90;;;11.06;89.86;100235.16;4930142;29;20027;-89
2021/05/23 07:19:14;;;;;;;6.55;3.38;;;9.80;99.90;;;11.22;89.58;100245.41;4934426;28;20039;-88
2021/05/23 07:21:40;;;;;;;7.32;3.50;;;9.90;99.90;;;11.19;89.86;100237.78;4923489;29;20032;-89
2021/05/23 07:24:07;;;;;;;10.10;3.38;;;10.00;99.90;;;11.25;89.65;100253.88;4940357;29;20035;-89
2021/05/23 07:26:33;;;;;;;9.13;3.60;;;9.90;99.90;;;11.30;88.53;100247.97;4922337;29;20172;-89
2021/05/23 07:28:59;;;;;;;7.45;3.50;;;10.00;99.90;;;11.34;88.57;100253.63;4926775;29;20088;-89
2021/05/23 07:31:31;;;;;;;11.40;3.13;;;10.00;99.90;;;11.31;87.60;100251.56;4934328;29;20031;-86
2021/05/23 07:33:58;;;;;;;7.75;3.20;;;10.10;99.90;;;11.36;87.98;100249.28;4941501;29;20483;-89
2021/05/23 07:36:25;;;;;;;6.85;3.20;;;10.10;99.90;;;11.61;87.06;100263.69;4937843;29;20051;-84
2021/05/23 07:38:51;;;;;;;7.97;2.17;;;10.10;99.90;;;11.36;86.71;100259.66;4939376;29;20028;-85
2021/05/23 07:41:22;;;;;;;8.38;3.10;;;10.10;99.90;;;11.35;86.37;100258.84;4947157;29;20082;-85
2021/05/23 07:43:48;;;;;;;5.90;2.42;;;10.10;99.90;;;11.59;85.86;100266.06;4957179;28;20039;-86
2021/05/23 07:46:14;;;;;;;8.77;3.22;;;10.20;99.90;;;11.50;85.31;100268.28;4939688;28;20087;-86
2021/05/23 07:48:40;;;;;;;8.48;2.88;;;10.20;99.90;;;11.40;86.20;100260.50;4940357;29;20031;-85
2021/05/23 07:51:06;;;;;;;5.47;2.60;;;10.20;99.90;;;11.75;85.67;100277.13;4939213;29;20212;-84
2021/05/23 07:53:32;;;;;;;7.90;2.83;;;10.40;99.90;;;11.87;84.67;100277.72;4943249;29;20051;-86
2021/05/23 07:55:59;;;;;;;7.63;2.95;;;10.50;99.90;;;12.06;82.22;100272.03;4949600;29;20055;-84
2021/05/23 07:58:25;;;;;;;5.75;2.50;;;10.70;99.90;;;12.35;80.96;100267.66;4939467;29;20027;-84
2021/05/23 08:00:51;;;;;;;9.05;3.17;;;11.00;99.90;;;12.77;79.46;100275.00;4939430;29;20046;-82
2021/05/23 08:03:17;;;;;;;8.52;3.20;;;11.40;99.90;;;13.63;76.88;100283.94;4937994;28;20407;-84
2021/05/23 08:05:43;;;;;;;6.85;2.50;;;12.10;99.90;;;14.33;72.83;100285.66;4939201;29;20027;-85
2021/05/23 08:08:09;;;;;;;5.38;2.22;;;12.70;99.90;;;14.23;72.47;100290.81;4938220;28;20047;-84
2021/05/23 08:10:35;;;;;;;8.15;2.35;;;12.80;99.90;;;14.14;71.53;100298.78;4939150;29;20040;-86
2021/05/23 08:13:01;;;;;;;7.70;2.30;;;13.00;99.90;;;14.35;72.09;100298.16;4939331;29;20067;-85
2021/05/23 08:15:27;;;;;;;5.50;1.95;;;13.00;99.90;;;14.88;70.32;100297.59;4938761;29;20039;-84
2021/05/23 08:17:54;;;;;;;5.95;2.13;;;13.20;99.90;;;14.60;69.45;100298.28;4942996;29;20483;-85
2021/05/23 08:20:22;;;;;;;8.85;2.00;;;13.10;99.90;;;14.35;69.33;100311.41;4942100;28;20028;-83
2021/05/23 08:22:50;;;;;;;6.53;2.17;;;13.00;99.90;;;14.53;68.37;100307.50;4943710;28;20126;-85
2021/05/23 08:25:16;;;;;;;8.15;2.22;;;13.00;99.90;;;14.73;68.22;100308.81;4939735;28;20131;-85
2021/05/23 08:27:42;;;;;;;3.33;1.75;;;13.20;99.90;;;14.64;67.88;100313.97;4943877;29;20043;-83
2021/05/23 08:30:11;;;;;;;6.55;1.67;;;13.30;99.90;;;15.41;64.59;100304.19;4941161;29;20035;-83
2021/05/23 08:32:38;;;;;;;8.85;2.58;;;13.80;99.90;;;15.85;62.72;100303.88;4938322;29;20506;-83
2021/05/23 08:35:09;;;;;;;9.00;1.70;;;14.30;99.90;;;16.27;61.59;100315.13;4941816;29;20028;-83
2021/05/23 08:37:36;;;;;;;6.25;1.73;;;14.80;99.90;;;16.96;59.70;100314.53;4939594;28;20047;-82
2021/05/23 08:40:05;;;;;;;7.18;1.42;;;15.30;99.90;;;16.55;58.33;100321.94;4940049;29;20038;-83
2021/05/23 08:42:33;;;;;;;7.47;1.80;;;15.30;99.90;;;17.26;57.97;100317.63;4938575;29;20115;-83
2021/05/23 08:44:59;;;;;;;7.65;1.60;;;15.50;99.90;;;16.55;57.33;100321.94;4937110;29;20452;-83
2021/05/23 08:47:25;;;;;;;6.05;1.73;;;15.40;99.90;;;16.64;57.15;100317.47;4938735;29;20036;-83
2021/05/23 08:49:52;;;;;;;3.70;1.55;;;15.30;99.90;;;17.21;56.75;100314.44;4938056;29;20035;-86
2021/05/23 08:52:20;;;;;;;5.75;1.52;;;15.60;99.90;;;18.19;54.27;100323.44;4937303;29;20326;-85
2021/05/23 08:54:48;;;;;;;6.30;1.60;;;16.20;99.90;;;18.01;51.12;100323.63;4936564;29;20024;-83
2021/05/23 08:57:23;;;;;;;4.28;1.25;;;16.40;99.90;;;17.79;50.80;100311.66;4938065;29;20558;-86
2021/05/23 08:59:50;;;;;;;5.40;1.15;;;16.50;99.90;;;17.43;49.98;100326.41;4937847;29;20032;-87
2021/05/23 09:02:16;;;;;;;6.15;1.33;;;16.40;98.40;;;16.93;50.47;100325.84;4939891;29;20436;-85
2021/05/23 09:04:52;;;;;;;7.78;1.40;;;15.90;99.20;;;16.31;49.57;100318.72;4938920;29;20090;-85
2021/05/23 09:07:19;;;;;;;2.97;1.10;;;15.50;95.40;;;16.65;52.18;100335.22;4939234;29;20028;-82
2021/05/23 09:09:49;;;;;;;7.97;1.58;;;15.40;99.90;;;16.71;50.86;100336.41;4934356;29;20087;-85
2021/05/23 09:12:19;;;;;;;3.65;1.05;;;15.30;99.90;;;17.09;48.52;100337.47;4945250;29;20024;-82
2021/05/23 09:14:52;;;;;;;4.43;1.00;;;15.40;98.30;;;17.06;49.58;100341.09;4940141;29;20023;-85
2021/05/23 09:17:28;;;;;;;3.95;0.82;;;15.50;99.90;;;16.33;47.96;100330.41;4939200;29;20396;-83
2021/05/23 09:19:57;;;;;;;6.90;1.10;;;15.30;90.90;;;17.04;47.53;100341.53;4940201;29;20483;-83
2021/05/23 09:22:28;;;;;;;4.82;1.50;;;15.50;94.50;;;16.82;48.90;100340.78;4939046;29;20441;-83
2021/05/23 09:25:01;;;;;;;2.97;1.10;;;15.40;96.80;;;16.33;49.91;100340.88;4940487;29;20103;-83
2021/05/23 09:27:32;;;;;;;7.03;1.08;;;15.10;98.80;;;16.37;50.52;100350.16;4941238;29;20056;-84
2021/05/23 09:30:12;;;;;;;4.10;0.90;;;15.10;99.90;;;16.27;50.30;100359.41;4943794;29;20114;-85
2021/05/23 09:32:44;;;;;;;4.45;1.00;;;15.10;98.60;;;16.13;48.65;100350.94;4943119;29;20038;-84
2021/05/23 09:35:12;;;;;;;6.22;1.27;;;15.10;93.60;;;15.71;49.21;100363.00;4943056;29;20046;-84
2021/05/23 09:37:39;;;;;;;5.53;1.08;;;14.80;94.70;;;15.74;49.84;100334.84;4940641;29;20401;-85
2021/05/23 09:40:21;;;;;;;6.70;1.25;;;14.70;97.50;;;15.66;51.05;100352.94;4942669;29;20094;-83
2021/05/23 09:42:53;;;;;;;6.57;1.05;;;14.50;99.90;;;17.07;47.79;100357.66;4941673;29;20503;-84
2021/05/23 09:45:25;;;;;;;3.67;1.60;;;15.30;96.70;;;18.18;47.06;100353.72;4946037;29;20211;-85
2021/05/23 09:47:58;;;;;;;5.35;1.08;;;16.20;97.00;;;18.12;44.11;100360.25;4942759;29;20037;-86
2021/05/23 09:50:42;;;;;;;4.88;1.10;;;16.60;84.60;;;17.85;44.50;100371.38;4941894;28;20519;-85
2021/05/23 09:53:27;;;;;;;6.50;1.33;;;16.80;80.30;;;17.03;46.10;100370.13;4942921;29;20035;-84
2021/05/23 09:56:13;;;;;;;6.10;1.15;;;16.30;79.30;;;17.03;46.60;100370.94;4940597;28;20094;-85
2021/05/23 09:58:47;;;;;;;5.13;1.03;;;16.00;84.70;;;17.46;46.33;100373.59;4944324;29;20038;-85
2021/05/23 10:01:31;;;;;;;2.58;1.25;;;16.20;88.40;;;17.24;46.64;100384.19;4960914;29;20011;-83
2021/05/23 10:04:01;;;;;;;4.85;1.13;;;16.00;88.60;;;16.90;47.08;100375.44;4952566;29;20027;-84
2021/05/23 10:06:33;;;;;;;2.15;1.00;;;15.60;90.10;;;17.02;48.25;100388.28;4941335;29;20031;-84
2021/05/23 10:08:59;;;;;;;8.73;1.52;;;15.40;94.70;;;16.68;47.95;100397.25;4942413;29;20092;-85
2021/05/23 10:11:27;;;;;;;3.60;1.17;;;15.30;93.20;;;17.19;46.86;100395.88;4946673;29;20469;-84
2021/05/23 10:13:53;;;;;;;3.20;1.08;;;15.70;91.40;;;18.01;45.05;100399.91;4948815;29;20058;-84
2021/05/23 10:16:21;;;;;;;4.28;0.80;;;16.20;87.10;;;17.22;46.80;100401.50;4947339;28;20024;-84
2021/05/23 10:18:50;;;;;;;4.28;1.23;;;15.90;90.20;;;16.10;47.71;100397.66;4942818;29;20489;-83
2021/05/23 10:21:17;;;;;;;5.25;1.10;;;15.20;88.20;;;15.88;49.38;100412.91;4939232;28;20062;-83
2021/05/23 10:24:00;;;;;;;6.68;1.00;;;14.80;94.40;;;15.93;49.39;100406.06;4939103;29;20460;-85